Time;durP1;ratioP1;P1;durP2;ratioP2;P2;SDS_P1;SDS_P2;PMS_P1;PMS_P2;Temp;Humidity;BMP_temperature;BMP_pressure;BME280_temperature;BME280_humidity;BME280_pressure;Samples;Min_cycle;Max_cycle;Signal;HPM_P1;HPM_P2
2021/07/11 00:01:19;;;;;;;22.37;18.33;;;14.90;99.90;;;;;;4918699;29;20540;-85
2021/07/11 00:03:48;;;;;;;21.30;18.33;;;15.00;99.90;;;;;;4921010;29;20202;-86
2021/07/11 00:06:19;;;;;;;21.20;17.23;;;15.00;99.90;;;;;;4908003;29;20187;-86
2021/07/11 00:08:48;;;;;;;23.70;17.67;;;15.00;99.90;;;;;;4944223;28;20266;-85
2021/07/11 00:11:17;;;;;;;22.70;18.37;;;15.00;99.90;;;;;;4945103;28;20178;-85
2021/07/11 00:13:46;;;;;;;21.87;17.90;;;14.90;99.90;;;;;;4944194;28;20194;-84
2021/07/11 00:16:15;;;;;;;21.60;17.03;;;14.90;99.90;;;;;;4946132;28;20212;-85
2021/07/11 00:18:43;;;;;;;21.60;17.20;;;14.80;99.90;;;;;;4938168;28;20350;-85
2021/07/11 00:21:12;;;;;;;21.13;18.20;;;14.80;99.90;;;;;;4942990;28;20229;-84
2021/07/11 00:23:42;;;;;;;19.50;17.40;;;14.90;99.90;;;;;;4950494;28;20214;-86
2021/07/11 00:26:11;;;;;;;18.80;16.80;;;14.90;99.90;;;;;;4925145;28;20586;-85
2021/07/11 00:28:40;;;;;;;20.17;16.83;;;15.00;99.90;;;;;;4944378;28;20258;-85
2021/07/11 00:31:08;;;;;;;22.87;18.30;;;15.00;99.90;;;;;;4943699;28;20210;-83
2021/07/11 00:33:38;;;;;;;20.33;16.63;;;14.90;99.90;;;;;;4946909;28;20194;-84
2021/07/11 00:36:07;;;;;;;20.13;17.03;;;14.90;99.90;;;;;;4941254;28;20194;-84
2021/07/11 00:38:37;;;;;;;18.17;16.27;;;14.80;99.90;;;;;;4925109;29;20248;-85
2021/07/11 00:41:07;;;;;;;17.20;15.10;;;14.80;99.90;;;;;;4921843;29;20208;-85
2021/07/11 00:43:36;;;;;;;21.73;17.23;;;14.70;99.90;;;;;;4918246;29;20234;-85
2021/07/11 00:46:05;;;;;;;20.13;16.33;;;14.70;99.90;;;;;;4923805;29;20273;-86
2021/07/11 00:48:34;;;;;;;19.80;16.90;;;14.60;99.90;;;;;;4931380;29;20238;-85
2021/07/11 00:51:04;;;;;;;18.13;16.20;;;14.50;99.90;;;;;;4933667;29;20218;-85
2021/07/11 00:53:33;;;;;;;21.97;17.20;;;14.50;99.90;;;;;;4938066;29;20230;-85
2021/07/11 00:56:02;;;;;;;20.10;16.27;;;14.50;99.90;;;;;;4937491;29;20198;-84
2021/07/11 00:58:33;;;;;;;20.27;17.37;;;14.50;99.90;;;;;;4932714;29;20237;-85
2021/07/11 01:01:03;;;;;;;24.30;18.67;;;14.50;99.90;;;;;;4922196;29;20477;-84
2021/07/11 01:03:36;;;;;;;23.47;19.23;;;14.50;99.90;;;;;;4919319;29;20210;-84
2021/07/11 01:06:06;;;;;;;25.47;18.63;;;14.50;99.90;;;;;;4918353;29;20210;-85
2021/07/11 01:08:41;;;;;;;24.67;18.87;;;14.50;99.90;;;;;;4910259;29;20249;-84
2021/07/11 01:11:13;;;;;;;23.67;19.73;;;14.50;99.90;;;;;;4930063;28;20202;-86
2021/07/11 01:13:44;;;;;;;24.53;19.07;;;14.50;99.90;;;;;;4938344;29;20244;-85
2021/07/11 01:16:16;;;;;;;21.13;18.23;;;14.60;99.90;;;;;;4926203;29;20791;-84
2021/07/11 01:18:47;;;;;;;24.87;18.70;;;14.50;99.90;;;;;;4943549;28;20210;-86
2021/07/11 01:21:18;;;;;;;23.00;17.80;;;14.60;99.90;;;;;;4942302;28;20849;-85
2021/07/11 01:23:54;;;;;;;21.40;17.90;;;14.60;99.90;;;;;;4947262;28;20198;-84
2021/07/11 01:26:25;;;;;;;23.23;18.17;;;14.70;99.90;;;;;;4941985;28;20186;-86
2021/07/11 01:28:57;;;;;;;22.83;17.57;;;14.70;99.90;;;;;;4927203;29;20210;-84
2021/07/11 01:31:29;;;;;;;23.50;18.37;;;14.60;99.90;;;;;;4926723;29;20197;-85
2021/07/11 01:34:01;;;;;;;22.17;18.37;;;14.50;99.90;;;;;;4931261;29;20241;-86
2021/07/11 01:36:30;;;;;;;25.23;19.17;;;14.50;99.90;;;;;;4942623;29;20186;-87
2021/07/11 01:38:59;;;;;;;24.47;19.00;;;14.40;99.90;;;;;;4940000;28;20245;-83
2021/07/11 01:41:30;;;;;;;23.53;18.03;;;14.40;99.90;;;;;;4939657;29;20252;-86
2021/07/11 01:44:00;;;;;;;20.40;17.63;;;14.50;99.90;;;;;;4941755;28;20200;-84
2021/07/11 01:46:29;;;;;;;19.33;16.87;;;14.50;99.90;;;;;;4929987;28;20217;-86
2021/07/11 01:49:01;;;;;;;22.83;18.27;;;14.50;99.90;;;;;;4920565;29;20622;-84
2021/07/11 01:51:30;;;;;;;19.10;17.10;;;14.40;99.90;;;;;;4925218;29;20190;-85
2021/07/11 01:54:00;;;;;;;22.47;17.17;;;14.40;99.90;;;;;;4941710;29;20189;-84
2021/07/11 01:56:31;;;;;;;19.57;17.30;;;14.40;99.90;;;;;;4935391;29;20210;-84
2021/07/11 01:59:00;;;;;;;20.17;16.73;;;14.30;99.90;;;;;;4936399;29;20238;-84
2021/07/11 02:01:29;;;;;;;22.53;17.43;;;14.30;99.90;;;;;;4930298;29;20178;-83
2021/07/11 02:03:58;;;;;;;20.53;17.00;;;14.30;99.90;;;;;;4936792;29;20206;-83
2021/07/11 02:06:26;;;;;;;19.93;16.23;;;14.20;99.90;;;;;;4936535;29;20201;-84
2021/07/11 02:08:56;;;;;;;20.03;16.83;;;14.20;99.90;;;;;;4901056;29;20728;-84
2021/07/11 02:11:27;;;;;;;19.67;17.47;;;14.20;99.90;;;;;;4919283;29;20632;-84
2021/07/11 02:14:04;;;;;;;20.93;17.03;;;14.10;99.90;;;;;;4926590;29;20563;-86
2021/07/11 02:16:37;;;;;;;24.00;18.20;;;14.10;99.90;;;;;;4922392;29;20221;-84
2021/07/11 02:19:08;;;;;;;20.70;16.77;;;14.20;99.90;;;;;;4939190;28;20497;-85
2021/07/11 02:21:39;;;;;;;19.70;16.60;;;14.10;99.90;;;;;;4920940;29;20530;-85
2021/07/11 02:24:08;;;;;;;19.67;16.53;;;14.10;99.90;;;;;;4921608;29;20218;-83
2021/07/11 02:26:37;;;;;;;19.83;17.63;;;14.10;99.90;;;;;;4916531;29;20302;-86
2021/07/11 02:29:09;;;;;;;22.70;18.50;;;14.10;99.90;;;;;;4921024;29;20405;-84
2021/07/11 02:31:40;;;;;;;19.27;17.27;;;14.10;99.90;;;;;;4920805;29;20340;-84
2021/07/11 02:34:10;;;;;;;21.60;18.13;;;14.20;99.90;;;;;;4923177;29;20238;-83
2021/07/11 02:36:46;;;;;;;22.63;18.33;;;14.20;99.90;;;;;;4926678;29;20210;-87
2021/07/11 02:39:17;;;;;;;21.83;18.13;;;14.30;99.90;;;;;;4916856;29;20852;-84
2021/07/11 02:41:50;;;;;;;22.50;17.73;;;14.30;99.90;;;;;;4918472;29;20210;-85
2021/07/11 02:44:22;;;;;;;21.40;18.00;;;14.30;99.90;;;;;;4920188;29;20210;-86
2021/07/11 02:46:56;;;;;;;25.57;19.57;;;14.30;99.90;;;;;;4898280;29;20241;-84
2021/07/11 02:49:28;;;;;;;22.93;18.97;;;14.30;99.90;;;;;;4917950;29;20227;-84
2021/07/11 02:51:59;;;;;;;20.73;18.00;;;14.40;99.90;;;;;;4919425;29;20202;-84
2021/07/11 02:54:33;;;;;;;20.40;17.63;;;14.50;99.90;;;;;;4931121;29;20218;-84
2021/07/11 02:57:05;;;;;;;18.93;16.93;;;14.50;99.90;;;;;;4936553;28;20204;-85
2021/07/11 02:59:37;;;;;;;21.17;17.07;;;14.40;99.90;;;;;;4924795;29;20709;-85
2021/07/11 03:02:15;;;;;;;20.80;17.97;;;14.50;99.90;;;;;;4935247;29;20617;-84
2021/07/11 03:04:46;;;;;;;22.27;17.93;;;14.50;99.90;;;;;;4899116;29;21027;-85
2021/07/11 03:07:15;;;;;;;22.10;16.77;;;14.50;99.90;;;;;;4920204;29;20226;-83
2021/07/11 03:09:44;;;;;;;22.90;17.63;;;14.60;99.90;;;;;;4911490;29;20625;-86
2021/07/11 03:12:14;;;;;;;18.53;15.67;;;14.70;99.90;;;;;;4926330;28;20213;-87
2021/07/11 03:14:49;;;;;;;17.43;15.63;;;14.70;99.90;;;;;;4929119;28;21053;-86
2021/07/11 03:17:21;;;;;;;17.83;16.00;;;14.80;99.90;;;;;;4924611;28;20204;-85
2021/07/11 03:19:53;;;;;;;20.73;15.67;;;14.80;99.90;;;;;;4927638;28;20218;-84
2021/07/11 03:22:24;;;;;;;19.47;16.40;;;14.80;99.90;;;;;;4926362;28;20534;-86
2021/07/11 03:24:55;;;;;;;16.33;14.50;;;14.90;99.90;;;;;;4925951;28;20456;-85
2021/07/11 03:27:28;;;;;;;17.13;15.43;;;14.90;99.90;;;;;;4918367;28;20813;-85
2021/07/11 03:30:07;;;;;;;21.87;17.67;;;15.00;99.90;;;;;;4964956;23;20248;-85
2021/07/11 03:32:40;;;;;;;18.97;16.17;;;15.10;99.90;;;;;;4933163;29;20576;-84
2021/07/11 03:35:12;;;;;;;16.43;14.47;;;15.20;99.90;;;;;;4920060;29;20736;-86
2021/07/11 03:37:47;;;;;;;18.03;15.97;;;15.20;99.90;;;;;;4916050;29;20304;-85
2021/07/11 03:40:21;;;;;;;18.17;16.27;;;15.30;99.90;;;;;;4923893;29;20230;-85
2021/07/11 03:42:53;;;;;;;18.63;16.03;;;15.30;99.90;;;;;;4918148;29;20209;-84
2021/07/11 03:45:24;;;;;;;17.67;15.77;;;15.40;99.90;;;;;;4924536;29;20444;-84
2021/07/11 03:47:59;;;;;;;18.90;16.30;;;15.50;99.90;;;;;;4915299;29;20213;-84
2021/07/11 03:50:29;;;;;;;19.23;16.00;;;15.50;99.90;;;;;;4922972;28;20224;-85
2021/07/11 03:53:04;;;;;;;18.13;16.17;;;15.70;99.90;;;;;;4944477;28;20186;-84
2021/07/11 03:55:35;;;;;;;19.70;16.30;;;15.80;99.90;;;;;;4948770;28;20397;-85
2021/07/11 03:58:07;;;;;;;20.40;16.50;;;15.90;99.90;;;;;;4932494;28;20306;-84
2021/07/11 04:00:40;;;;;;;18.03;16.17;;;15.90;99.90;;;;;;4942711;28;20230;-84
2021/07/11 04:03:10;;;;;;;18.30;16.40;;;16.10;99.90;;;;;;4947482;28;20229;-85
2021/07/11 04:05:40;;;;;;;18.20;16.30;;;16.10;99.90;;;;;;4928411;28;22054;-84
2021/07/11 04:08:12;;;;;;;18.27;16.30;;;16.20;99.90;;;;;;4929327;28;20206;-83
2021/07/11 04:10:41;;;;;;;17.53;15.70;;;16.30;99.90;;;;;;4920201;29;20556;-84
2021/07/11 04:13:11;;;;;;;17.00;15.30;;;16.40;99.90;;;;;;4927616;29;20210;-84
2021/07/11 04:15:42;;;;;;;18.20;16.40;;;16.50;99.90;;;;;;4940572;28;20506;-85
2021/07/11 04:18:19;;;;;;;18.33;16.50;;;16.50;99.90;;;;;;4940732;28;21572;-84
2021/07/11 04:20:49;;;;;;;17.03;15.30;;;16.70;99.90;;;;;;4937716;28;20232;-84
2021/07/11 04:23:18;;;;;;;16.97;15.27;;;16.80;99.90;;;;;;4929663;29;20415;-85
2021/07/11 04:25:47;;;;;;;16.93;15.00;;;17.00;99.90;;;;;;4933791;29;20654;-84
2021/07/11 04:28:17;;;;;;;16.83;15.13;;;17.10;99.90;;;;;;4936181;29;20198;-83
2021/07/11 04:30:48;;;;;;;18.93;15.83;;;17.20;99.90;;;;;;4933530;28;20264;-85
2021/07/11 04:33:17;;;;;;;16.13;14.57;;;17.20;99.90;;;;;;4945437;28;20182;-84
2021/07/11 04:35:45;;;;;;;15.73;14.23;;;17.30;99.90;;;;;;4928124;28;20214;-84
2021/07/11 04:38:14;;;;;;;16.23;14.63;;;17.40;99.90;;;;;;4917166;28;20217;-84
2021/07/11 04:40:43;;;;;;;15.87;14.20;;;17.60;99.90;;;;;;4919904;29;20245;-85
2021/07/11 04:43:15;;;;;;;14.80;13.40;;;17.80;99.90;;;;;;4921978;29;20214;-84
2021/07/11 04:45:44;;;;;;;15.20;13.60;;;18.00;99.90;;;;;;4927313;29;20261;-85
2021/07/11 04:48:15;;;;;;;14.33;12.93;;;18.30;99.90;;;;;;4924512;29;20984;-84
2021/07/11 04:50:47;;;;;;;13.60;12.40;;;18.60;99.90;;;;;;4925152;29;20278;-84
2021/07/11 04:53:17;;;;;;;14.83;12.97;;;18.80;99.90;;;;;;4931897;29;20281;-83
2021/07/11 04:55:47;;;;;;;13.63;12.30;;;18.90;99.90;;;;;;4928932;29;20214;-83
2021/07/11 04:58:16;;;;;;;12.70;11.53;;;19.00;99.90;;;;;;4928336;29;20480;-85
2021/07/11 05:00:45;;;;;;;11.97;10.87;;;19.00;99.00;;;;;;4927974;29;20230;-84
2021/07/11 05:03:15;;;;;;;11.83;10.63;;;19.20;97.80;;;;;;4929867;29;20261;-84
2021/07/11 05:05:44;;;;;;;12.10;11.10;;;19.30;98.80;;;;;;4921419;29;20214;-85
2021/07/11 05:08:13;;;;;;;11.47;10.33;;;19.50;97.10;;;;;;4925030;28;20268;-83
2021/07/11 05:10:43;;;;;;;11.17;10.20;;;19.60;95.20;;;;;;4939380;29;20194;-85
2021/07/11 05:13:12;;;;;;;9.93;9.10;;;19.60;95.20;;;;;;4940526;29;20217;-83
2021/07/11 05:15:41;;;;;;;9.80;8.87;;;19.70;95.30;;;;;;4924464;29;20198;-84
2021/07/11 05:18:10;;;;;;;9.20;8.50;;;19.70;95.20;;;;;;4920986;29;20206;-84
2021/07/11 05:20:41;;;;;;;8.90;8.00;;;19.80;94.60;;;;;;4922634;28;20492;-85
2021/07/11 05:23:16;;;;;;;8.30;7.60;;;19.80;95.00;;;;;;4927810;29;20210;-85
2021/07/11 05:25:45;;;;;;;9.53;8.67;;;19.90;93.80;;;;;;4920858;29;20221;-84
2021/07/11 05:28:14;;;;;;;8.27;7.60;;;19.90;94.90;;;;;;4921898;29;20210;-85
2021/07/11 05:30:43;;;;;;;9.13;8.30;;;20.00;93.60;;;;;;4923168;29;20288;-85
2021/07/11 05:33:12;;;;;;;8.40;7.80;;;20.00;93.70;;;;;;4924190;29;20269;-84
2021/07/11 05:35:43;;;;;;;8.60;7.77;;;20.20;93.70;;;;;;4931914;29;20206;-87
2021/07/11 05:38:13;;;;;;;8.17;7.57;;;20.30;93.50;;;;;;4939297;28;20211;-83
2021/07/11 05:40:44;;;;;;;8.43;7.80;;;20.50;92.90;;;;;;4934008;29;20530;-84
2021/07/11 05:43:13;;;;;;;8.60;7.77;;;20.50;93.30;;;;;;4934389;29;20292;-84
2021/07/11 05:45:42;;;;;;;7.97;7.20;;;20.60;92.60;;;;;;4921343;28;20232;-84
2021/07/11 05:48:11;;;;;;;7.83;7.13;;;20.80;92.60;;;;;;4915475;29;20514;-84
2021/07/11 05:50:41;;;;;;;7.68;6.97;;;20.90;93.30;;;;;;4934040;29;20209;-84
2021/07/11 05:53:10;;;;;;;8.07;7.45;;;21.00;91.70;;;;;;4941251;29;20210;-83
2021/07/11 05:55:40;;;;;;;7.80;7.10;;;21.00;91.90;;;;;;4921571;29;20732;-84
2021/07/11 05:58:10;;;;;;;8.02;7.30;;;20.90;92.30;;;;;;4925830;29;20319;-84
2021/07/11 06:00:40;;;;;;;7.75;7.05;;;21.10;91.60;;;;;;4931638;29;20241;-86
2021/07/11 06:03:12;;;;;;;6.47;5.97;;;21.20;91.90;;;;;;4923811;29;20242;-86
2021/07/11 06:05:43;;;;;;;6.78;6.28;;;21.50;91.30;;;;;;4919242;29;20202;-85
2021/07/11 06:08:13;;;;;;;6.82;6.32;;;21.70;91.40;;;;;;4919978;29;20375;-83
2021/07/11 06:10:41;;;;;;;6.85;6.03;;;21.80;90.70;;;;;;4925280;29;20210;-84
2021/07/11 06:13:10;;;;;;;6.38;5.97;;;21.70;90.90;;;;;;4918116;29;20214;-84
2021/07/11 06:15:39;;;;;;;7.55;6.85;;;21.80;90.80;;;;;;4926085;29;20230;-85
2021/07/11 06:18:09;;;;;;;6.50;5.90;;;21.70;90.50;;;;;;4917773;29;20887;-84
2021/07/11 06:20:39;;;;;;;6.45;6.05;;;21.70;91.00;;;;;;4921642;29;20336;-84
2021/07/11 06:23:10;;;;;;;6.53;6.03;;;21.80;91.20;;;;;;4924054;29;20249;-84
2021/07/11 06:25:39;;;;;;;6.43;5.97;;;21.70;90.50;;;;;;4916870;29;20253;-84
2021/07/11 06:28:09;;;;;;;5.53;5.13;;;21.60;90.90;;;;;;4917313;29;20354;-84
2021/07/11 06:30:37;;;;;;;6.25;5.75;;;21.70;90.70;;;;;;4926326;29;20928;-84
2021/07/11 06:33:07;;;;;;;5.70;5.20;;;21.80;91.00;;;;;;4923830;29;20206;-85
2021/07/11 06:35:36;;;;;;;6.45;5.93;;;21.60;90.40;;;;;;4926243;29;20684;-86
2021/07/11 06:38:05;;;;;;;6.68;6.00;;;21.60;90.70;;;;;;4922677;29;20228;-85
2021/07/11 06:40:35;;;;;;;5.70;5.20;;;21.60;90.40;;;;;;4940964;29;20265;-85
2021/07/11 06:43:04;;;;;;;6.10;5.68;;;21.50;90.50;;;;;;4941442;28;20798;-84
2021/07/11 06:45:33;;;;;;;6.47;5.88;;;21.40;90.70;;;;;;4923821;29;20209;-85
2021/07/11 06:48:02;;;;;;;5.72;5.22;;;21.40;90.90;;;;;;4921812;29;20330;-83
2021/07/11 06:50:32;;;;;;;5.97;5.38;;;21.50;90.20;;;;;;4922031;29;20232;-84
2021/07/11 06:53:01;;;;;;;5.40;5.00;;;21.50;90.40;;;;;;4926264;29;20224;-85
2021/07/11 06:55:30;;;;;;;5.75;5.18;;;21.50;90.20;;;;;;4920261;29;20237;-87
2021/07/11 06:58:00;;;;;;;6.15;5.55;;;21.50;90.40;;;;;;4926638;28;20935;-85
2021/07/11 07:00:29;;;;;;;6.00;5.60;;;21.50;90.40;;;;;;4931080;28;20210;-85
2021/07/11 07:03:01;;;;;;;6.35;5.85;;;21.50;91.20;;;;;;4923026;28;20214;-85
2021/07/11 07:05:30;;;;;;;6.90;6.40;;;21.50;90.80;;;;;;4931179;29;20218;-85
2021/07/11 07:07:58;;;;;;;6.40;5.97;;;21.70;90.70;;;;;;4922154;28;20227;-84
2021/07/11 07:10:27;;;;;;;6.10;5.60;;;21.80;90.80;;;;;;4928438;29;20202;-85
2021/07/11 07:12:57;;;;;;;5.57;5.20;;;21.90;90.40;;;;;;4927999;29;20202;-84
2021/07/11 07:15:27;;;;;;;6.10;5.57;;;22.00;90.20;;;;;;4922514;29;20234;-83
2021/07/11 07:17:56;;;;;;;6.18;5.78;;;22.10;90.30;;;;;;4921852;29;20206;-84
2021/07/11 07:20:28;;;;;;;5.75;5.35;;;22.30;90.50;;;;;;4930054;29;20221;-85
2021/07/11 07:22:58;;;;;;;5.57;5.13;;;22.70;90.10;;;;;;4931149;29;20230;-87
2021/07/11 07:25:27;;;;;;;5.82;5.32;;;22.90;89.00;;;;;;4924980;29;20198;-85
2021/07/11 07:27:55;;;;;;;5.93;5.43;;;23.00;89.10;;;;;;4923001;29;20190;-84
2021/07/11 07:30:25;;;;;;;4.97;4.65;;;23.30;87.70;;;;;;4935209;29;20206;-85
2021/07/11 07:32:55;;;;;;;4.18;3.90;;;23.30;86.30;;;;;;4925547;29;20209;-84
2021/07/11 07:35:24;;;;;;;3.20;3.00;;;23.50;86.00;;;;;;4922831;29;20206;-84
2021/07/11 07:37:53;;;;;;;3.53;3.22;;;23.40;84.50;;;;;;4921026;29;20206;-86
2021/07/11 07:40:23;;;;;;;3.70;3.50;;;22.90;84.60;;;;;;4924837;29;20213;-85
2021/07/11 07:42:52;;;;;;;3.90;3.60;;;22.70;85.00;;;;;;4925283;29;20293;-86
2021/07/11 07:45:22;;;;;;;3.60;3.40;;;22.60;85.70;;;;;;4934271;29;20205;-86
2021/07/11 07:47:51;;;;;;;4.13;3.83;;;22.60;85.30;;;;;;4944158;28;20206;-86
2021/07/11 07:50:24;;;;;;;3.75;3.53;;;22.60;85.40;;;;;;4929154;29;20206;-85
2021/07/11 07:52:53;;;;;;;3.65;3.45;;;22.70;85.80;;;;;;4929904;29;20210;-83
2021/07/11 07:55:22;;;;;;;4.38;4.00;;;22.90;85.50;;;;;;4931192;29;20270;-85
2021/07/11 07:57:52;;;;;;;3.85;3.65;;;23.30;85.20;;;;;;4940304;28;20265;-86
2021/07/11 08:00:21;;;;;;;3.63;3.20;;;23.40;85.00;;;;;;4947298;28;20208;-84
2021/07/11 08:02:50;;;;;;;3.40;3.20;;;23.40;84.40;;;;;;4943839;28;20210;-84
2021/07/11 08:05:19;;;;;;;3.90;3.65;;;23.10;84.40;;;;;;4944257;28;20249;-85
2021/07/11 08:07:49;;;;;;;3.90;3.60;;;23.20;84.70;;;;;;4939080;28;20190;-85
2021/07/11 08:10:23;;;;;;;3.65;3.45;;;23.40;84.20;;;;;;4936747;29;20202;-88
2021/07/11 08:12:54;;;;;;;4.25;3.88;;;23.30;84.50;;;;;;4941738;29;20212;-84
2021/07/11 08:15:25;;;;;;;4.07;3.67;;;23.40;84.60;;;;;;4936081;29;20200;-84
2021/07/11 08:17:55;;;;;;;3.55;3.35;;;23.60;84.70;;;;;;4935199;29;20508;-86
2021/07/11 08:20:25;;;;;;;3.53;3.22;;;23.80;84.00;;;;;;4941532;28;20206;-84
2021/07/11 08:23:08;;;;;;;3.83;3.63;;;23.90;84.30;;;;;;4945970;28;20242;-86
2021/07/11 08:25:43;;;;;;;4.05;3.75;;;23.90;83.80;;;;;;4941706;29;20218;-83
2021/07/11 08:28:12;;;;;;;4.45;4.15;;;23.80;84.60;;;;;;4936770;29;20206;-84
2021/07/11 08:30:41;;;;;;;8.23;5.13;;;23.90;83.90;;;;;;4942349;28;20268;-84
2021/07/11 08:33:10;;;;;;;5.13;4.50;;;24.00;83.80;;;;;;4935561;29;20234;-85
2021/07/11 08:35:39;;;;;;;4.47;4.18;;;24.20;84.10;;;;;;4931961;29;20213;-83
2021/07/11 08:38:12;;;;;;;4.40;4.10;;;24.20;84.00;;;;;;4924694;28;20206;-85
2021/07/11 08:40:41;;;;;;;4.32;4.03;;;24.30;84.10;;;;;;4921309;29;20222;-87
2021/07/11 08:43:10;;;;;;;4.57;4.28;;;24.30;83.70;;;;;;4923031;29;20269;-83
2021/07/11 08:45:40;;;;;;;4.18;3.97;;;24.40;83.70;;;;;;4921547;29;20202;-84
2021/07/11 08:48:12;;;;;;;3.88;3.67;;;24.40;83.60;;;;;;4918052;29;20534;-84
2021/07/11 08:50:41;;;;;;;4.07;3.75;;;24.50;83.30;;;;;;4937778;28;20928;-85
2021/07/11 08:53:14;;;;;;;4.47;4.13;;;24.50;83.50;;;;;;4934134;28;20210;-84
2021/07/11 08:55:44;;;;;;;3.90;3.70;;;24.50;83.40;;;;;;4933297;28;20198;-86
2021/07/11 08:58:15;;;;;;;3.85;3.63;;;24.50;83.70;;;;;;4923401;29;20212;-84
2021/07/11 09:00:44;;;;;;;4.82;3.80;;;24.30;83.60;;;;;;4922883;29;20598;-86
2021/07/11 09:03:14;;;;;;;4.00;3.80;;;24.00;83.40;;;;;;4918422;28;21202;-87
2021/07/11 09:05:43;;;;;;;4.35;4.13;;;23.90;83.40;;;;;;4921286;29;20700;-85
2021/07/11 09:08:22;;;;;;;4.68;4.25;;;23.80;83.70;;;;;;4936516;29;20214;-85
2021/07/11 09:10:54;;;;;;;4.78;4.38;;;24.00;83.40;;;;;;4925631;29;20261;-84
2021/07/11 09:13:27;;;;;;;4.57;4.20;;;23.90;83.30;;;;;;4924438;29;20670;-88
2021/07/11 09:15:59;;;;;;;4.18;3.88;;;23.90;83.40;;;;;;4922621;29;20306;-87
2021/07/11 09:18:31;;;;;;;3.70;3.50;;;23.90;83.10;;;;;;4917074;29;20442;-84
2021/07/11 09:21:02;;;;;;;3.90;3.60;;;23.90;83.80;;;;;;4934066;29;20549;-86
2021/07/11 09:23:41;;;;;;;3.63;3.42;;;24.00;83.30;;;;;;4934014;28;20335;-85
2021/07/11 09:26:12;;;;;;;3.80;3.60;;;24.20;83.10;;;;;;4922602;29;20225;-86
2021/07/11 09:28:48;;;;;;;4.05;3.80;;;24.10;82.90;;;;;;4918545;29;20209;-87
2021/07/11 09:31:20;;;;;;;4.03;3.83;;;23.90;82.60;;;;;;4926984;29;20485;-85
2021/07/11 09:33:57;;;;;;;4.03;3.78;;;24.10;83.40;;;;;;4940988;29;20199;-88
2021/07/11 09:36:30;;;;;;;4.07;3.88;;;24.30;83.50;;;;;;4945155;28;20511;-87
2021/07/11 09:39:02;;;;;;;3.95;3.75;;;24.30;83.10;;;;;;4988550;23;20237;-86
2021/07/11 09:41:34;;;;;;;4.13;3.83;;;24.30;83.10;;;;;;4932244;28;20204;-88
2021/07/11 09:44:07;;;;;;;3.97;3.58;;;24.50;83.30;;;;;;4953292;28;20232;-85
2021/07/11 09:46:36;;;;;;;3.50;3.30;;;24.50;83.00;;;;;;4949664;28;20238;-84
2021/07/11 09:49:17;;;;;;;4.40;3.20;;;24.50;83.20;;;;;;4929399;29;20237;-84
2021/07/11 09:51:47;;;;;;;3.83;3.60;;;24.40;83.10;;;;;;4947561;28;20208;-86
2021/07/11 09:54:18;;;;;;;3.55;3.35;;;24.30;83.00;;;;;;4950077;28;20214;-83
2021/07/11 09:56:48;;;;;;;3.75;3.47;;;24.30;82.90;;;;;;4952265;28;20893;-83
2021/07/11 09:59:18;;;;;;;3.42;3.22;;;24.30;82.90;;;;;;4934987;28;20302;-86
2021/07/11 10:01:47;;;;;;;3.50;3.30;;;24.40;83.10;;;;;;4933076;28;20206;-85
2021/07/11 10:04:21;;;;;;;3.15;2.97;;;24.40;83.30;;;;;;4930260;29;20280;-88
2021/07/11 10:06:51;;;;;;;3.30;3.10;;;24.40;83.40;;;;;;4960196;23;20438;-87
2021/07/11 10:09:24;;;;;;;3.40;3.10;;;24.50;83.20;;;;;;4923250;29;20293;-85
2021/07/11 10:11:54;;;;;;;3.58;2.92;;;24.50;82.90;;;;;;4924873;29;20210;-87
2021/07/11 10:14:23;;;;;;;3.40;3.20;;;24.20;82.60;;;;;;4912464;29;20221;-86
2021/07/11 10:16:54;;;;;;;3.50;3.30;;;24.10;83.10;;;;;;4933663;29;20226;-83
2021/07/11 10:19:29;;;;;;;3.38;3.15;;;24.20;83.50;;;;;;4935105;29;20206;-87
2021/07/11 10:22:10;;;;;;;3.38;3.17;;;24.30;83.30;;;;;;4922922;29;20645;-84
2021/07/11 10:24:47;;;;;;;3.80;3.50;;;24.40;83.40;;;;;;4931346;29;21380;-86
2021/07/11 10:27:21;;;;;;;4.15;3.53;;;24.50;83.30;;;;;;4944691;28;20220;-88
2021/07/11 10:29:57;;;;;;;3.65;3.45;;;24.60;82.60;;;;;;4910144;29;20217;-88
2021/07/11 10:32:41;;;;;;;3.80;3.55;;;24.60;83.10;;;;;;4927609;29;20205;-85
2021/07/11 10:37:59;;;;;;;3.28;3.03;;;24.60;83.40;;;;;;4904047;29;20222;-88
2021/07/11 10:40:35;;;;;;;3.67;3.08;;;24.50;82.70;;;;;;4925959;29;20210;-85
2021/07/11 10:43:20;;;;;;;3.25;2.95;;;24.50;82.20;;;;;;4926541;29;20261;-86
2021/07/11 10:46:14;;;;;;;3.33;3.08;;;24.30;82.50;;;;;;4946952;28;20824;-85
2021/07/11 10:48:44;;;;;;;4.10;3.80;;;24.40;82.90;;;;;;4919760;29;20210;-84
2021/07/11 10:51:22;;;;;;;3.50;3.30;;;24.50;82.50;;;;;;4927487;29;20206;-87
2021/07/11 10:53:55;;;;;;;3.25;3.03;;;24.40;82.70;;;;;;4935707;29;20214;-86
2021/07/11 10:56:27;;;;;;;3.47;3.28;;;24.40;82.70;;;;;;4936765;29;20202;-85
2021/07/11 10:58:57;;;;;;;3.72;3.40;;;24.40;82.80;;;;;;4935026;29;20336;-87
2021/07/11 11:01:37;;;;;;;3.80;3.60;;;24.50;82.30;;;;;;4942860;28;20198;-85
2021/07/11 11:04:21;;;;;;;3.78;3.42;;;24.50;82.30;;;;;;4924430;28;20222;-84
2021/07/11 11:09:51;;;;;;;3.67;3.40;;;24.50;82.40;;;;;;5259227;23;20304;-84
2021/07/11 11:12:25;;;;;;;3.47;3.28;;;24.60;82.50;;;;;;4947554;28;20300;-87
2021/07/11 11:14:59;;;;;;;3.33;3.10;;;24.50;82.20;;;;;;4966078;28;20369;-88
2021/07/11 11:17:34;;;;;;;3.50;3.25;;;24.60;82.10;;;;;;4936146;28;20216;-85
2021/07/11 11:20:07;;;;;;;3.28;3.08;;;24.50;81.90;;;;;;4952587;28;20236;-85
2021/07/11 11:22:38;;;;;;;3.33;3.13;;;24.50;82.40;;;;;;4946329;28;20201;-85
2021/07/11 11:25:19;;;;;;;3.67;3.38;;;24.60;82.40;;;;;;4951986;28;20248;-87
2021/07/11 11:27:55;;;;;;;3.60;3.40;;;24.50;82.60;;;;;;4941711;28;20386;-84
2021/07/11 11:30:27;;;;;;;3.42;3.22;;;24.50;82.30;;;;;;4944062;28;20309;-84
2021/07/11 11:32:58;;;;;;;3.17;2.97;;;24.60;82.40;;;;;;4945212;28;20209;-85
2021/07/11 11:35:29;;;;;;;3.00;2.80;;;24.70;81.10;;;;;;4943669;28;20190;-88
2021/07/11 11:38:03;;;;;;;3.28;3.08;;;24.70;81.90;;;;;;4948196;28;20272;-86
2021/07/11 11:40:41;;;;;;;3.85;3.60;;;24.70;81.80;;;;;;4954161;28;20214;-84
2021/07/11 11:43:17;;;;;;;2.90;2.70;;;24.80;81.60;;;;;;4948621;28;20241;-84
2021/07/11 11:45:45;;;;;;;3.30;3.10;;;24.80;81.70;;;;;;4957866;28;20511;-84
2021/07/11 11:48:16;;;;;;;3.67;3.47;;;24.60;82.00;;;;;;4944678;28;20880;-84
2021/07/11 11:50:45;;;;;;;3.63;3.33;;;24.70;82.20;;;;;;4942811;28;20240;-87
2021/07/11 11:53:19;;;;;;;3.50;3.20;;;24.90;82.00;;;;;;4948377;28;20197;-86
2021/07/11 11:55:53;;;;;;;2.83;2.63;;;25.00;82.10;;;;;;4939919;28;20312;-85
2021/07/11 11:58:29;;;;;;;3.30;3.10;;;25.00;81.70;;;;;;4943653;28;20217;-86
2021/07/11 12:01:01;;;;;;;3.38;3.17;;;24.90;81.60;;;;;;4945594;28;20210;-88
2021/07/11 12:03:36;;;;;;;3.20;2.90;;;25.00;82.10;;;;;;4950214;28;20688;-87
2021/07/11 12:06:08;;;;;;;3.58;3.38;;;25.10;82.50;;;;;;4965946;28;20217;-86
2021/07/11 12:08:43;;;;;;;3.42;3.22;;;25.30;82.30;;;;;;4956293;28;20216;-86
2021/07/11 12:11:17;;;;;;;3.35;3.15;;;25.40;81.80;;;;;;4965489;28;20676;-84
2021/07/11 12:13:49;;;;;;;3.42;3.22;;;25.50;82.60;;;;;;4965012;28;20753;-86
2021/07/11 12:16:19;;;;;;;3.40;3.10;;;25.60;81.90;;;;;;4964819;28;20361;-87
2021/07/11 12:18:51;;;;;;;3.63;3.42;;;25.50;81.90;;;;;;4942406;29;20545;-85
2021/07/11 12:21:22;;;;;;;3.55;3.35;;;25.50;81.60;;;;;;4953025;28;20205;-85
2021/07/11 12:24:04;;;;;;;3.53;3.22;;;25.40;81.80;;;;;;4965937;28;20223;-84
2021/07/11 12:26:37;;;;;;;3.30;3.10;;;25.50;81.80;;;;;;4957040;28;20212;-87
2021/07/11 12:29:17;;;;;;;3.10;2.90;;;25.60;82.00;;;;;;4967871;28;20244;-87
2021/07/11 12:31:56;;;;;;;3.10;2.90;;;25.60;81.20;;;;;;4965312;28;20221;-86
2021/07/11 12:34:26;;;;;;;3.35;3.10;;;25.50;81.20;;;;;;4964420;28;20217;-86
2021/07/11 12:37:01;;;;;;;3.08;2.88;;;25.70;81.50;;;;;;4956715;28;20565;-83
2021/07/11 12:39:37;;;;;;;3.13;2.92;;;25.90;80.70;;;;;;4965325;28;20205;-85
2021/07/11 12:42:17;;;;;;;4.05;3.00;;;25.90;81.00;;;;;;4969845;28;20220;-84
2021/07/11 12:44:49;;;;;;;3.00;2.80;;;26.00;80.50;;;;;;4948085;29;20229;-85
2021/07/11 12:47:19;;;;;;;3.10;2.90;;;26.20;80.90;;;;;;4942873;28;20423;-85
2021/07/11 12:49:53;;;;;;;3.30;3.00;;;26.30;80.70;;;;;;4938379;28;20211;-86
2021/07/11 12:52:24;;;;;;;3.00;2.90;;;26.30;80.90;;;;;;4956954;28;20227;-86
2021/07/11 12:54:54;;;;;;;3.45;3.22;;;26.20;80.90;;;;;;4949695;28;20839;-87
2021/07/11 12:57:32;;;;;;;3.80;3.47;;;26.40;80.40;;;;;;4940386;28;20209;-87
2021/07/11 13:00:06;;;;;;;3.20;3.00;;;26.80;81.00;;;;;;4953129;28;20201;-86
2021/07/11 13:02:37;;;;;;;3.10;2.90;;;27.00;80.30;;;;;;4946005;29;20683;-87
2021/07/11 13:05:10;;;;;;;3.30;3.10;;;26.70;79.80;;;;;;4948348;28;20566;-85